Time;durP1;ratioP1;P1;durP2;ratioP2;P2;SDS_P1;SDS_P2;PMS_P1;PMS_P2;Temp;Humidity;BMP_temperature;BMP_pressure;BME280_temperature;BME280_humidity;BME280_pressure;Samples;Min_cycle;Max_cycle;Signal;HPM_P1;HPM_P2
2023/04/14 00:00:17;;;;;;;5.07;3.93;;;;;;;;;;4994287;28;20196;-85
2023/04/14 00:02:44;;;;;;;4.53;3.60;;;;;;;;;;4993273;28;20756;-85
2023/04/14 00:05:11;;;;;;;7.17;2.83;;;;;;;;;;4993814;28;20586;-86
2023/04/14 00:07:38;;;;;;;3.23;2.90;;;;;;;;;;4993407;28;20236;-86
2023/04/14 00:10:06;;;;;;;3.80;2.77;;;;;;;;;;4993596;28;20208;-85
2023/04/14 00:12:33;;;;;;;5.40;2.83;;;;;;;;;;4992998;28;20239;-85
2023/04/14 00:15:01;;;;;;;3.67;3.30;;;;;;;;;;4993563;28;20212;-85
2023/04/14 00:17:28;;;;;;;3.67;2.83;;;;;;;;;;4993164;28;20243;-86
2023/04/14 00:19:55;;;;;;;2.97;2.70;;;;;;;;;;4993267;28;20212;-86
2023/04/14 00:22:22;;;;;;;7.30;3.23;;;;;;;;;;4993254;28;20240;-86
2023/04/14 00:24:49;;;;;;;3.00;2.70;;;;;;;;;;4993457;28;20200;-86
2023/04/14 00:27:16;;;;;;;3.47;3.00;;;;;;;;;;4993360;28;20240;-86
2023/04/14 00:29:43;;;;;;;4.47;3.33;;;;;;;;;;4993780;28;20223;-86
2023/04/14 00:32:12;;;;;;;9.67;3.40;;;;;;;;;;4993900;28;20236;-86
2023/04/14 00:34:39;;;;;;;6.07;3.07;;;;;;;;;;4997571;28;20211;-86
2023/04/14 00:37:06;;;;;;;8.27;3.23;;;;;;;;;;4996173;28;20243;-86
2023/04/14 00:39:33;;;;;;;5.30;3.17;;;;;;;;;;4996769;28;20204;-86
2023/04/14 00:42:01;;;;;;;3.30;3.00;;;;;;;;;;4996162;28;20235;-86
2023/04/14 00:44:28;;;;;;;3.63;2.90;;;;;;;;;;4997731;28;20255;-85
2023/04/14 00:46:56;;;;;;;6.07;3.20;;;;;;;;;;4977094;28;20237;-85
2023/04/14 00:49:25;;;;;;;3.60;3.30;;;;;;;;;;4990766;28;20204;-85
2023/04/14 00:51:52;;;;;;;4.97;3.53;;;;;;;;;;4996258;28;20236;-86
2023/04/14 00:54:19;;;;;;;4.27;3.43;;;;;;;;;;4996354;28;20208;-86
2023/04/14 00:56:47;;;;;;;4.97;3.10;;;;;;;;;;4996288;28;20240;-86
2023/04/14 00:59:14;;;;;;;6.93;3.30;;;;;;;;;;4996115;28;20204;-85
2023/04/14 01:01:41;;;;;;;3.50;3.20;;;;;;;;;;4996022;28;20228;-85
2023/04/14 01:04:08;;;;;;;4.30;3.10;;;;;;;;;;4992907;28;20208;-85
2023/04/14 01:06:37;;;;;;;5.87;3.90;;;;;;;;;;4993592;28;20246;-85
2023/04/14 01:09:05;;;;;;;4.60;3.27;;;;;;;;;;4996438;28;20221;-86
2023/04/14 01:11:36;;;;;;;6.63;3.60;;;;;;;;;;4995825;28;20240;-86
2023/04/14 01:14:08;;;;;;;4.93;3.17;;;;;;;;;;4996638;28;20200;-86
2023/04/14 01:16:38;;;;;;;4.13;3.20;;;;;;;;;;4995901;28;20342;-86
2023/04/14 01:19:16;;;;;;;5.70;3.23;;;;;;;;;;4996366;28;20220;-84
2023/04/14 01:21:47;;;;;;;6.60;3.47;;;;;;;;;;4995930;28;20243;-86
2023/04/14 01:24:30;;;;;;;5.13;3.43;;;;;;;;;;4996136;28;20203;-85
2023/04/14 01:27:03;;;;;;;3.47;2.93;;;;;;;;;;4995477;28;20235;-86
2023/04/14 01:29:45;;;;;;;3.70;3.37;;;;;;;;;;4995901;28;20214;-86
2023/04/14 01:32:19;;;;;;;6.40;3.40;;;;;;;;;;4993127;28;20227;-86
2023/04/14 01:34:48;;;;;;;3.63;3.30;;;;;;;;;;4996641;28;20659;-85
2023/04/14 01:37:16;;;;;;;5.87;3.57;;;;;;;;;;4996018;28;20608;-85
2023/04/14 01:39:46;;;;;;;3.60;3.30;;;;;;;;;;4995882;28;20230;-85
2023/04/14 01:42:15;;;;;;;4.57;2.87;;;;;;;;;;4995392;28;20733;-85
2023/04/14 01:44:43;;;;;;;3.93;3.00;;;;;;;;;;4995700;28;20235;-85
2023/04/14 01:47:13;;;;;;;4.83;3.53;;;;;;;;;;4995188;28;20772;-86
2023/04/14 01:49:42;;;;;;;3.27;2.97;;;;;;;;;;4995683;28;20665;-85
2023/04/14 01:52:10;;;;;;;3.60;3.30;;;;;;;;;;4995294;28;20235;-86
2023/04/14 01:54:39;;;;;;;3.73;2.97;;;;;;;;;;4995817;28;20204;-86
2023/04/14 01:57:08;;;;;;;3.83;2.97;;;;;;;;;;4995148;28;20235;-86
2023/04/14 01:59:37;;;;;;;3.00;2.80;;;;;;;;;;4994919;28;20258;-84
2023/04/14 02:02:05;;;;;;;5.97;3.10;;;;;;;;;;4994924;28;20591;-86
2023/04/14 02:04:32;;;;;;;3.80;2.90;;;;;;;;;;4995147;28;20704;-86
2023/04/14 02:07:02;;;;;;;3.80;3.00;;;;;;;;;;4995036;28;20709;-85
2023/04/14 02:09:29;;;;;;;5.10;2.97;;;;;;;;;;4976141;28;20209;-85
2023/04/14 02:11:58;;;;;;;6.23;3.20;;;;;;;;;;4975708;28;20267;-86
2023/04/14 02:14:25;;;;;;;4.77;3.37;;;;;;;;;;4976244;28;20196;-85
2023/04/14 02:16:52;;;;;;;3.40;2.80;;;;;;;;;;4995339;28;20239;-86
2023/04/14 02:19:20;;;;;;;4.43;2.93;;;;;;;;;;4989875;28;20212;-86
2023/04/14 02:21:48;;;;;;;6.60;2.97;;;;;;;;;;4995795;28;20278;-86
2023/04/14 02:24:17;;;;;;;3.67;2.90;;;;;;;;;;4986138;28;20222;-85
2023/04/14 02:26:47;;;;;;;3.70;3.10;;;;;;;;;;4980896;28;20321;-85
2023/04/14 02:29:15;;;;;;;3.90;2.90;;;;;;;;;;4975389;28;20615;-87
2023/04/14 02:31:43;;;;;;;3.27;2.70;;;;;;;;;;4974946;28;20247;-86
2023/04/14 02:34:12;;;;;;;4.57;3.07;;;;;;;;;;4984789;28;20199;-86
2023/04/14 02:36:40;;;;;;;3.97;3.07;;;;;;;;;;4990140;28;20584;-86
2023/04/14 02:39:13;;;;;;;4.90;3.07;;;;;;;;;;4994783;28;20616;-87
2023/04/14 02:41:42;;;;;;;4.83;3.10;;;;;;;;;;4978171;28;20729;-86
2023/04/14 02:44:11;;;;;;;5.00;3.30;;;;;;;;;;4975281;28;20697;-86
2023/04/14 02:46:41;;;;;;;2.83;2.63;;;;;;;;;;4975284;28;20246;-86
2023/04/14 02:49:10;;;;;;;2.73;2.53;;;;;;;;;;4976250;28;20584;-85
2023/04/14 02:51:38;;;;;;;3.00;2.53;;;;;;;;;;4981220;28;20238;-86
2023/04/14 02:54:06;;;;;;;3.20;2.50;;;;;;;;;;4995082;28;20246;-86
2023/04/14 02:56:33;;;;;;;3.20;2.57;;;;;;;;;;4994713;28;20290;-87
2023/04/14 02:59:03;;;;;;;2.63;2.43;;;;;;;;;;4992732;28;20689;-84
2023/04/14 03:01:31;;;;;;;3.07;2.53;;;;;;;;;;4984317;28;20235;-84
2023/04/14 03:04:00;;;;;;;2.73;2.50;;;;;;;;;;4988802;28;20661;-86
2023/04/14 03:06:28;;;;;;;6.50;2.87;;;;;;;;;;4987343;28;20241;-85
2023/04/14 03:08:55;;;;;;;3.00;2.70;;;;;;;;;;4994182;28;20213;-85
2023/04/14 03:11:22;;;;;;;3.87;2.70;;;;;;;;;;4993635;28;20634;-86
2023/04/14 03:13:52;;;;;;;3.10;2.80;;;;;;;;;;4993361;28;20238;-84
2023/04/14 03:16:21;;;;;;;2.87;2.67;;;;;;;;;;4992782;28;20260;-84
2023/04/14 03:18:49;;;;;;;3.00;2.70;;;;;;;;;;4993200;28;20806;-85
2023/04/14 03:21:17;;;;;;;4.97;2.90;;;;;;;;;;4993136;28;20238;-84
2023/04/14 03:23:44;;;;;;;3.10;2.80;;;;;;;;;;4993665;28;20226;-85
2023/04/14 03:26:12;;;;;;;3.33;3.03;;;;;;;;;;4993091;28;20249;-84
2023/04/14 03:28:42;;;;;;;3.37;2.70;;;;;;;;;;4993371;28;20210;-85
2023/04/14 03:31:09;;;;;;;3.47;3.17;;;;;;;;;;4990633;28;20772;-86
2023/04/14 03:33:38;;;;;;;3.40;3.10;;;;;;;;;;5008983;28;20233;-85
2023/04/14 03:36:07;;;;;;;4.37;3.13;;;;;;;;;;5012127;28;20757;-85
2023/04/14 03:38:35;;;;;;;6.00;3.30;;;;;;;;;;4992924;28;20204;-85
2023/04/14 03:41:04;;;;;;;3.40;2.90;;;;;;;;;;4992223;28;20735;-86
2023/04/14 03:43:32;;;;;;;3.20;2.90;;;;;;;;;;4991897;28;20223;-85
2023/04/14 03:45:59;;;;;;;3.40;3.10;;;;;;;;;;4992202;28;20620;-85
2023/04/14 03:48:28;;;;;;;4.60;3.13;;;;;;;;;;4992500;28;20205;-86
2023/04/14 03:50:58;;;;;;;15.17;3.20;;;;;;;;;;4992111;28;20337;-85
2023/04/14 03:53:26;;;;;;;4.33;3.07;;;;;;;;;;4992475;28;20300;-86
2023/04/14 03:55:57;;;;;;;4.60;3.27;;;;;;;;;;4992020;28;20621;-84
2023/04/14 03:58:25;;;;;;;5.60;3.33;;;;;;;;;;4992698;28;20220;-88
2023/04/14 04:00:53;;;;;;;3.83;3.17;;;;;;;;;;4992649;28;20334;-86
2023/04/14 04:03:21;;;;;;;5.37;3.50;;;;;;;;;;4993207;28;20233;-86
2023/04/14 04:05:48;;;;;;;8.50;2.97;;;;;;;;;;4993738;28;20244;-86
2023/04/14 04:08:18;;;;;;;5.77;3.20;;;;;;;;;;4997316;28;20702;-85
2023/04/14 04:10:47;;;;;;;5.83;3.13;;;;;;;;;;4996900;28;20674;-90
2023/04/14 04:13:16;;;;;;;5.57;2.90;;;;;;;;;;4996962;28;20323;-86
2023/04/14 04:15:44;;;;;;;5.90;3.10;;;;;;;;;;4996266;28;20720;-85
2023/04/14 04:18:15;;;;;;;6.07;3.33;;;;;;;;;;4996621;28;20694;-85
2023/04/14 04:20:43;;;;;;;5.37;3.00;;;;;;;;;;4996283;28;20231;-85
2023/04/14 04:23:10;;;;;;;2.90;2.60;;;;;;;;;;4996505;28;20235;-84
2023/04/14 04:25:40;;;;;;;4.17;3.00;;;;;;;;;;4996148;28;20247;-84
2023/04/14 04:28:07;;;;;;;5.40;3.03;;;;;;;;;;4994108;28;20250;-85
2023/04/14 04:30:35;;;;;;;4.17;3.20;;;;;;;;;;4995497;28;20209;-84
2023/04/14 04:33:03;;;;;;;3.47;3.17;;;;;;;;;;4996174;28;20232;-82
2023/04/14 04:35:30;;;;;;;3.77;3.00;;;;;;;;;;4995612;28;20207;-84
2023/04/14 04:37:59;;;;;;;3.93;2.90;;;;;;;;;;4995677;28;20238;-82
2023/04/14 04:40:26;;;;;;;3.70;3.27;;;;;;;;;;4994468;28;20302;-83
2023/04/14 04:42:55;;;;;;;6.13;2.87;;;;;;;;;;4995343;28;20228;-82
2023/04/14 04:45:36;;;;;;;4.53;3.50;;;;;;;;;;4994896;28;20216;-82
2023/04/14 04:48:04;;;;;;;4.50;3.47;;;;;;;;;;4995214;28;20263;-82
2023/04/14 04:50:31;;;;;;;8.10;3.30;;;;;;;;;;4994892;28;20263;-82
2023/04/14 04:52:58;;;;;;;3.33;3.13;;;;;;;;;;4994655;28;20232;-83
2023/04/14 04:55:25;;;;;;;7.83;3.60;;;;;;;;;;4994602;28;20299;-83
2023/04/14 04:57:52;;;;;;;4.50;3.67;;;;;;;;;;4995501;28;20216;-83
2023/04/14 05:00:21;;;;;;;8.13;3.67;;;;;;;;;;4994739;28;20208;-86
2023/04/14 05:02:49;;;;;;;5.07;3.30;;;;;;;;;;4995281;28;20275;-83
2023/04/14 05:05:16;;;;;;;3.43;2.83;;;;;;;;;;4995129;28;20244;-83
2023/04/14 05:07:43;;;;;;;5.43;3.30;;;;;;;;;;4994618;28;20239;-84
2023/04/14 05:10:11;;;;;;;5.47;3.00;;;;;;;;;;4995047;28;20200;-84
2023/04/14 05:12:38;;;;;;;4.63;3.00;;;;;;;;;;4994313;28;20247;-83
2023/04/14 05:15:05;;;;;;;3.30;2.90;;;;;;;;;;4995264;28;20227;-83
2023/04/14 05:17:34;;;;;;;4.80;2.83;;;;;;;;;;4994303;28;20290;-84
2023/04/14 05:20:01;;;;;;;2.90;2.67;;;;;;;;;;4996074;28;20246;-84
2023/04/14 05:22:28;;;;;;;4.77;2.63;;;;;;;;;;4995689;28;20614;-84
2023/04/14 05:24:55;;;;;;;3.50;2.70;;;;;;;;;;4995485;28;20698;-83
2023/04/14 05:27:22;;;;;;;3.40;3.10;;;;;;;;;;4990327;28;20239;-84
2023/04/14 05:29:49;;;;;;;5.87;3.20;;;;;;;;;;4989227;28;20201;-83
2023/04/14 05:32:16;;;;;;;4.97;3.13;;;;;;;;;;4990857;28;20243;-84
2023/04/14 05:34:45;;;;;;;4.10;2.93;;;;;;;;;;4993275;28;20590;-82
2023/04/14 05:37:12;;;;;;;5.20;3.00;;;;;;;;;;4993750;28;20270;-83
2023/04/14 05:39:39;;;;;;;3.20;2.90;;;;;;;;;;4993742;28;20296;-84
2023/04/14 05:42:06;;;;;;;4.93;3.40;;;;;;;;;;4986418;28;20244;-83
2023/04/14 05:44:33;;;;;;;4.07;3.47;;;;;;;;;;4985400;28;20204;-83
2023/04/14 05:47:00;;;;;;;6.17;3.77;;;;;;;;;;4985407;28;20236;-83
2023/04/14 05:49:27;;;;;;;4.53;3.20;;;;;;;;;;4993313;28;20212;-83
2023/04/14 05:51:56;;;;;;;6.17;3.93;;;;;;;;;;4993067;28;20240;-84
2023/04/14 05:54:23;;;;;;;7.37;3.53;;;;;;;;;;4993348;28;20239;-84
2023/04/14 05:56:50;;;;;;;11.23;6.07;;;;;;;;;;4993293;28;20231;-83
2023/04/14 05:59:17;;;;;;;10.97;7.03;;;;;;;;;;4985825;28;20204;-84
2023/04/14 06:01:44;;;;;;;5.43;4.00;;;;;;;;;;4973731;28;20239;-83
2023/04/14 06:04:11;;;;;;;5.60;3.47;;;;;;;;;;4981855;28;20208;-84
2023/04/14 06:06:39;;;;;;;3.67;3.37;;;;;;;;;;4984551;28;20232;-83
2023/04/14 06:09:07;;;;;;;6.13;3.77;;;;;;;;;;4995611;28;20217;-83
2023/04/14 06:11:34;;;;;;;9.37;3.80;;;;;;;;;;4983678;28;20318;-84
2023/04/14 06:14:01;;;;;;;5.73;4.10;;;;;;;;;;4984600;28;20239;-83
2023/04/14 06:16:28;;;;;;;8.37;4.23;;;;;;;;;;4994598;28;20235;-83
2023/04/14 06:18:55;;;;;;;5.67;4.07;;;;;;;;;;4987622;28;20216;-84
2023/04/14 06:21:22;;;;;;;5.20;4.03;;;;;;;;;;4981143;28;20228;-83
2023/04/14 06:23:50;;;;;;;5.77;4.23;;;;;;;;;;4986346;28;20230;-83
2023/04/14 06:26:18;;;;;;;8.63;4.37;;;;;;;;;;4984069;28;20659;-84
2023/04/14 06:28:45;;;;;;;4.43;3.83;;;;;;;;;;4984516;28;20228;-83
2023/04/14 06:31:13;;;;;;;15.17;6.27;;;;;;;;;;4991776;28;20317;-83
2023/04/14 06:33:40;;;;;;;17.13;7.20;;;;;;;;;;4993258;28;20255;-83
2023/04/14 06:36:07;;;;;;;16.27;8.00;;;;;;;;;;4992742;28;20243;-84
2023/04/14 06:38:34;;;;;;;21.13;10.17;;;;;;;;;;4990295;28;20210;-84
2023/04/14 06:41:01;;;;;;;18.20;10.83;;;;;;;;;;4987312;28;20235;-84
2023/04/14 06:43:30;;;;;;;20.67;11.60;;;;;;;;;;4984671;28;20246;-84
2023/04/14 06:45:57;;;;;;;17.97;10.10;;;;;;;;;;4986818;28;20252;-83
2023/04/14 06:48:26;;;;;;;18.40;10.63;;;;;;;;;;4990090;28;20212;-81
2023/04/14 06:50:54;;;;;;;22.57;11.70;;;;;;;;;;4992462;28;20235;-82
2023/04/14 06:53:21;;;;;;;12.00;9.63;;;;;;;;;;4993467;28;20265;-83
2023/04/14 06:55:50;;;;;;;18.33;10.20;;;;;;;;;;4991810;28;20249;-83
2023/04/14 06:58:17;;;;;;;21.77;9.77;;;;;;;;;;4984582;28;20219;-83
2023/04/14 07:00:46;;;;;;;17.87;9.63;;;;;;;;;;4988372;28;20270;-82
2023/04/14 07:03:13;;;;;;;24.13;10.13;;;;;;;;;;4973489;28;20242;-83
2023/04/14 07:05:40;;;;;;;16.87;10.30;;;;;;;;;;4984230;28;20238;-84
2023/04/14 07:08:08;;;;;;;19.10;10.37;;;;;;;;;;4992708;28;20211;-83
2023/04/14 07:10:35;;;;;;;15.60;9.47;;;;;;;;;;4981735;28;20236;-84
2023/04/14 07:13:02;;;;;;;15.20;10.67;;;;;;;;;;4991954;28;20712;-82
2023/04/14 07:15:29;;;;;;;16.87;9.43;;;;;;;;;;4991983;28;20293;-84
2023/04/14 07:17:58;;;;;;;15.57;9.20;;;;;;;;;;4992654;28;20243;-84
2023/04/14 07:20:25;;;;;;;16.10;9.57;;;;;;;;;;4991855;28;20208;-85
2023/04/14 07:22:53;;;;;;;14.50;9.03;;;;;;;;;;4987988;28;20233;-84
2023/04/14 07:25:20;;;;;;;16.20;10.23;;;;;;;;;;4981084;28;20623;-84
2023/04/14 07:27:47;;;;;;;13.43;8.70;;;;;;;;;;4989111;28;20209;-84
2023/04/14 07:30:14;;;;;;;14.30;8.40;;;;;;;;;;4980523;28;20577;-83
2023/04/14 07:32:41;;;;;;;12.37;8.67;;;;;;;;;;4991795;28;20326;-84
2023/04/14 07:35:10;;;;;;;13.03;9.10;;;;;;;;;;4991767;28;20255;-84
2023/04/14 07:37:37;;;;;;;14.47;8.00;;;;;;;;;;4987036;28;20227;-83
2023/04/14 07:40:05;;;;;;;12.30;8.40;;;;;;;;;;4988310;28;20212;-82
2023/04/14 07:45:19;;;;;;;12.33;8.00;;;;;;;;;;5083173;23;20234;-83
2023/04/14 07:47:47;;;;;;;12.70;7.20;;;;;;;;;;5025250;28;20234;-82
2023/04/14 07:50:15;;;;;;;12.97;7.80;;;;;;;;;;5028889;28;20210;-82
2023/04/14 07:52:42;;;;;;;9.80;6.50;;;;;;;;;;5016428;28;20227;-82
2023/04/14 07:55:09;;;;;;;9.17;6.33;;;;;;;;;;5025743;28;20222;-82
2023/04/14 07:57:37;;;;;;;11.60;7.13;;;;;;;;;;5022382;28;20590;-83
2023/04/14 08:00:05;;;;;;;8.80;7.00;;;;;;;;;;5034722;28;20670;-83
2023/04/14 08:02:32;;;;;;;10.67;6.83;;;;;;;;;;5028390;28;20234;-82
2023/04/14 08:04:59;;;;;;;9.13;6.67;;;;;;;;;;5024772;28;20261;-82
2023/04/14 08:07:28;;;;;;;13.87;6.63;;;;;;;;;;5034201;28;20238;-82
2023/04/14 08:09:55;;;;;;;9.53;6.00;;;;;;;;;;5037549;28;20217;-83
2023/04/14 08:12:24;;;;;;;10.63;6.80;;;;;;;;;;5034780;28;20246;-82
2023/04/14 08:14:51;;;;;;;9.10;6.07;;;;;;;;;;5037494;28;20645;-82
2023/04/14 08:17:18;;;;;;;10.70;6.53;;;;;;;;;;5036545;28;20234;-83
2023/04/14 08:19:45;;;;;;;13.57;6.30;;;;;;;;;;5030831;28;20217;-83
2023/04/14 08:22:12;;;;;;;11.57;6.30;;;;;;;;;;5036558;28;20325;-83
2023/04/14 08:24:40;;;;;;;9.17;6.67;;;;;;;;;;5037414;28;20622;-82
2023/04/14 08:27:07;;;;;;;9.40;6.23;;;;;;;;;;5036575;28;20230;-83
2023/04/14 08:29:35;;;;;;;11.37;6.10;;;;;;;;;;5037436;28;20213;-83
2023/04/14 08:32:02;;;;;;;9.23;6.30;;;;;;;;;;5036696;28;20774;-82
2023/04/14 08:34:29;;;;;;;10.30;6.80;;;;;;;;;;5037551;28;20231;-83
2023/04/14 08:36:59;;;;;;;12.93;6.80;;;;;;;;;;5037311;28;20712;-84
2023/04/14 08:39:26;;;;;;;9.60;6.57;;;;;;;;;;5035198;28;20210;-83
2023/04/14 08:41:55;;;;;;;7.27;6.07;;;;;;;;;;5036632;28;20293;-83
2023/04/14 08:44:22;;;;;;;11.70;5.97;;;;;;;;;;5038007;28;20221;-83
2023/04/14 08:46:51;;;;;;;12.90;6.40;;;;;;;;;;5029141;28;20234;-83
2023/04/14 08:49:23;;;;;;;8.47;5.57;;;;;;;;;;5037175;28;20261;-84
2023/04/14 08:51:52;;;;;;;7.20;5.37;;;;;;;;;;5031622;28;20234;-83
2023/04/14 08:54:19;;;;;;;9.57;6.23;;;;;;;;;;5028218;28;20233;-83
2023/04/14 08:56:47;;;;;;;12.47;5.90;;;;;;;;;;5033535;28;20226;-84
2023/04/14 08:59:15;;;;;;;13.50;6.00;;;;;;;;;;5033332;28;20199;-83
2023/04/14 09:01:42;;;;;;;8.43;5.67;;;;;;;;;;5029014;28;20608;-83
2023/04/14 09:04:09;;;;;;;9.87;5.70;;;;;;;;;;5033960;28;20203;-84
2023/04/14 09:06:36;;;;;;;11.27;6.13;;;;;;;;;;5033226;28;20242;-84
2023/04/14 09:09:06;;;;;;;10.13;5.17;;;;;;;;;;5028468;28;20215;-84
2023/04/14 09:11:33;;;;;;;8.43;5.30;;;;;;;;;;5026216;28;20317;-84
2023/04/14 09:14:00;;;;;;;9.37;5.60;;;;;;;;;;5033849;28;20198;-85
2023/04/14 09:16:29;;;;;;;9.03;5.47;;;;;;;;;;5033852;28;20884;-86
2023/04/14 09:18:57;;;;;;;6.77;4.63;;;;;;;;;;5034249;28;20214;-85
2023/04/14 09:21:26;;;;;;;9.00;5.57;;;;;;;;;;5029791;28;20234;-85
2023/04/14 09:23:53;;;;;;;7.20;5.37;;;;;;;;;;5034880;28;20214;-86
2023/04/14 09:26:20;;;;;;;7.70;5.50;;;;;;;;;;5034269;28;20246;-85
2023/04/14 09:28:47;;;;;;;7.63;5.40;;;;;;;;;;5026162;28;20211;-85
2023/04/14 09:31:14;;;;;;;8.07;5.07;;;;;;;;;;5034841;28;20244;-85
2023/04/14 09:33:46;;;;;;;8.70;4.88;;;;;;;;;;5034895;28;20227;-85
2023/04/14 09:36:21;;;;;;;7.05;4.97;;;;;;;;;;5034708;28;20266;-86
2023/04/14 09:38:48;;;;;;;9.05;5.10;;;;;;;;;;5034306;28;20214;-86
2023/04/14 09:41:18;;;;;;;8.38;5.00;;;;;;;;;;5022010;28;20342;-85
2023/04/14 09:43:46;;;;;;;6.82;4.75;;;;;;;;;;5032362;28;20223;-85
2023/04/14 09:46:14;;;;;;;5.40;4.50;;;;;;;;;;5033879;28;20242;-86
2023/04/14 09:48:51;;;;;;;7.20;4.40;;;;;;;;;;5016822;28;20207;-86
2023/04/14 09:51:22;;;;;;;8.07;4.95;;;;;;;;;;5026840;28;20231;-85
2023/04/14 09:53:49;;;;;;;5.38;4.15;;;;;;;;;;5024803;28;20779;-85
2023/04/14 09:56:16;;;;;;;5.75;4.80;;;;;;;;;;5037120;28;20234;-85
2023/04/14 09:58:44;;;;;;;6.93;4.43;;;;;;;;;;5033270;28;20637;-85
2023/04/14 10:01:12;;;;;;;8.38;4.75;;;;;;;;;;5032341;28;20230;-85
2023/04/14 10:03:40;;;;;;;7.07;5.80;;;;;;;;;;5032748;28;20266;-84
2023/04/14 10:06:09;;;;;;;6.60;4.55;;;;;;;;;;5037503;28;20646;-85
2023/04/14 10:08:37;;;;;;;8.80;4.82;;;;;;;;;;5032319;28;20207;-86
2023/04/14 10:11:21;;;;;;;6.18;4.28;;;;;;;;;;5031937;28;20230;-84
2023/04/14 10:13:49;;;;;;;7.93;4.50;;;;;;;;;;5032136;28;20234;-85
2023/04/14 10:16:17;;;;;;;6.82;4.45;;;;;;;;;;5031351;28;20242;-85
2023/04/14 10:18:44;;;;;;;5.60;3.97;;;;;;;;;;5031108;28;20768;-84
2023/04/14 10:21:13;;;;;;;4.18;3.55;;;;;;;;;;5030207;28;20321;-85
2023/04/14 10:23:42;;;;;;;6.85;3.92;;;;;;;;;;5023594;28;20702;-85
2023/04/14 10:26:12;;;;;;;7.30;4.13;;;;;;;;;;5030758;28;20257;-86
2023/04/14 10:28:41;;;;;;;6.00;3.60;;;;;;;;;;5021196;28;20586;-86
2023/04/14 10:31:10;;;;;;;6.63;3.55;;;;;;;;;;5024805;28;20623;-86
2023/04/14 10:33:37;;;;;;;5.63;3.22;;;;;;;;;;5032155;28;20230;-86
2023/04/14 10:36:05;;;;;;;6.38;3.53;;;;;;;;;;5031677;28;20650;-86
2023/04/14 10:38:43;;;;;;;6.75;3.45;;;;;;;;;;5025748;28;20273;-85
2023/04/14 10:41:11;;;;;;;8.40;3.45;;;;;;;;;;5023007;28;20230;-84
2023/04/14 10:43:38;;;;;;;6.45;3.70;;;;;;;;;;5030648;28;20242;-84
2023/04/14 10:46:06;;;;;;;6.97;3.05;;;;;;;;;;5030780;28;20610;-84
2023/04/14 10:48:33;;;;;;;5.25;3.00;;;;;;;;;;5024878;28;20741;-85
2023/04/14 10:51:02;;;;;;;3.03;2.17;;;;;;;;;;5030378;28;20602;-85
2023/04/14 10:53:35;;;;;;;4.68;2.00;;;;;;;;;;5030799;28;20223;-85
2023/04/14 10:56:04;;;;;;;4.38;3.13;;;;;;;;;;5029144;28;20235;-85
2023/04/14 10:58:34;;;;;;;5.30;2.97;;;;;;;;;;5025718;28;20238;-85
2023/04/14 11:01:01;;;;;;;4.68;2.88;;;;;;;;;;5030842;28;20627;-85
2023/04/14 11:03:31;;;;;;;6.10;3.20;;;;;;;;;;5032059;28;20237;-85
2023/04/14 11:06:00;;;;;;;5.22;2.83;;;;;;;;;;5022607;28;20235;-85
2023/04/14 11:08:28;;;;;;;5.68;3.00;;;;;;;;;;5030287;28;20364;-84
2023/04/14 11:11:01;;;;;;;4.38;2.63;;;;;;;;;;5030299;28;20253;-85
2023/04/14 11:13:30;;;;;;;3.60;2.10;;;;;;;;;;5031006;28;20222;-84
2023/04/14 11:15:58;;;;;;;4.85;2.38;;;;;;;;;;5029304;28;20246;-84
2023/04/14 11:18:32;;;;;;;4.35;2.40;;;;;;;;;;5029951;28;20285;-84
2023/04/14 11:21:03;;;;;;;5.10;2.38;;;;;;;;;;5022706;28;20230;-83
2023/04/14 11:23:30;;;;;;;6.13;2.30;;;;;;;;;;5030351;28;20288;-83
2023/04/14 11:25:57;;;;;;;4.90;2.40;;;;;;;;;;5030159;28;20235;-84
2023/04/14 11:28:32;;;;;;;6.15;2.40;;;;;;;;;;5028548;28;20280;-84
2023/04/14 11:31:00;;;;;;;1.95;1.80;;;;;;;;;;5021420;28;20298;-85
2023/04/14 11:33:28;;;;;;;3.50;1.90;;;;;;;;;;5030232;28;20230;-85
2023/04/14 11:35:56;;;;;;;4.05;2.10;;;;;;;;;;5029220;28;20704;-85
2023/04/14 11:38:23;;;;;;;4.93;2.05;;;;;;;;;;5029684;28;20218;-85
2023/04/14 11:40:50;;;;;;;4.32;2.10;;;;;;;;;;5029081;28;20268;-86
2023/04/14 11:43:17;;;;;;;3.00;1.67;;;;;;;;;;5029392;28;20218;-85
2023/04/14 11:45:47;;;;;;;3.15;2.00;;;;;;;;;;5029515;28;20241;-85
2023/04/14 11:48:16;;;;;;;4.40;2.13;;;;;;;;;;5029043;28;20238;-86
2023/04/14 11:50:44;;;;;;;3.97;2.05;;;;;;;;;;5023504;28;20238;-84
2023/04/14 11:53:12;;;;;;;4.00;2.08;;;;;;;;;;5015083;28;20284;-85
2023/04/14 11:55:42;;;;;;;4.85;2.28;;;;;;;;;;5028582;28;20717;-84
2023/04/14 11:58:09;;;;;;;4.72;1.98;;;;;;;;;;5029977;28;20333;-84
2023/04/14 12:00:36;;;;;;;4.68;2.40;;;;;;;;;;5012560;28;20256;-85
2023/04/14 12:03:06;;;;;;;5.70;2.35;;;;;;;;;;5029464;28;20265;-85
2023/04/14 12:05:34;;;;;;;4.68;2.58;;;;;;;;;;5028831;28;20622;-84
2023/04/14 12:08:02;;;;;;;4.85;1.95;;;;;;;;;;5021158;28;20215;-85
2023/04/14 12:10:29;;;;;;;2.65;2.20;;;;;;;;;;5028428;28;20236;-85
2023/04/14 12:13:00;;;;;;;3.58;2.10;;;;;;;;;;5029748;28;20235;-84
2023/04/14 12:15:27;;;;;;;3.47;1.85;;;;;;;;;;5029124;28;20272;-84
2023/04/14 12:17:54;;;;;;;4.82;1.90;;;;;;;;;;5029243;28;20210;-84
2023/04/14 12:20:23;;;;;;;5.40;2.10;;;;;;;;;;5028412;28;20206;-85
2023/04/14 12:22:50;;;;;;;4.13;1.98;;;;;;;;;;5027680;28;20219;-85
2023/04/14 12:25:17;;;;;;;4.65;1.80;;;;;;;;;;5029953;28;20230;-85
2023/04/14 12:27:51;;;;;;;2.70;1.80;;;;;;;;;;5029601;28;20630;-85
2023/04/14 12:30:20;;;;;;;4.20;2.22;;;;;;;;;;5033341;28;20238;-86
2023/04/14 12:32:48;;;;;;;3.72;1.50;;;;;;;;;;5032889;28;20222;-84
2023/04/14 12:35:15;;;;;;;4.38;1.70;;;;;;;;;;5033658;28;20536;-85
2023/04/14 12:37:49;;;;;;;3.35;1.40;;;;;;;;;;5032717;28;20231;-85
2023/04/14 12:40:16;;;;;;;2.40;1.42;;;;;;;;;;5033395;28;20238;-85
2023/04/14 12:42:44;;;;;;;2.65;1.50;;;;;;;;;;5032493;28;20238;-85
2023/04/14 12:45:12;;;;;;;3.03;1.52;;;;;;;;;;5032872;28;20327;-84
2023/04/14 12:47:39;;;;;;;3.60;1.45;;;;;;;;;;5032576;28;20230;-84
2023/04/14 12:50:20;;;;;;;4.25;1.50;;;;;;;;;;5029278;28;20202;-85
2023/04/14 12:52:49;;;;;;;4.80;1.60;;;;;;;;;;5032636;28;20284;-85
2023/04/14 12:55:19;;;;;;;4.35;1.55;;;;;;;;;;5033446;28;20203;-84
2023/04/14 12:57:46;;;;;;;2.80;2.00;;;;;;;;;;5024188;28;20231;-85
2023/04/14 13:00:14;;;;;;;2.90;1.63;;;;;;;;;;5032506;28;20677;-85
2023/04/14 13:02:42;;;;;;;6.07;2.13;;;;;;;;;;5030477;28;20258;-86
2023/04/14 13:05:10;;;;;;;3.80;1.60;;;;;;;;;;5025576;28;20581;-84
2023/04/14 13:07:37;;;;;;;2.72;1.70;;;;;;;;;;5032796;28;20443;-84
2023/04/14 13:10:07;;;;;;;4.20;1.65;;;;;;;;;;5033755;28;20237;-87
2023/04/14 13:12:34;;;;;;;3.15;1.80;;;;;;;;;;5031525;28;20235;-86
2023/04/14 13:15:01;;;;;;;3.85;1.55;;;;;;;;;;5034062;28;20233;-87
2023/04/14 13:17:28;;;;;;;3.35;1.70;;;;;;;;;;5035554;28;20247;-86
2023/04/14 13:19:55;;;;;;;4.78;2.25;;;;;;;;;;5038429;28;20213;-87
2023/04/14 13:22:22;;;;;;;6.63;2.03;;;;;;;;;;5039895;28;20237;-86
2023/04/14 13:24:50;;;;;;;5.55;1.80;;;;;;;;;;5034465;28;20211;-84
2023/04/14 13:27:18;;;;;;;3.33;1.77;;;;;;;;;;5032989;28;20325;-87
2023/04/14 13:29:46;;;;;;;3.00;1.55;;;;;;;;;;5031979;28;20202;-86
2023/04/14 13:32:13;;;;;;;3.17;1.90;;;;;;;;;;5022372;28;20736;-87
2023/04/14 13:34:40;;;;;;;6.38;2.00;;;;;;;;;;5029042;28;20207;-87
2023/04/14 13:37:07;;;;;;;2.40;1.73;;;;;;;;;;5032135;28;20258;-87
2023/04/14 13:39:34;;;;;;;2.30;1.45;;;;;;;;;;5031207;28;20581;-86
2023/04/14 13:42:02;;;;;;;2.35;1.55;;;;;;;;;;5020976;28;20239;-86
2023/04/14 13:44:31;;;;;;;1.70;1.08;;;;;;;;;;5030686;28;20432;-84
2023/04/14 13:46:59;;;;;;;2.42;1.45;;;;;;;;;;5031630;28;20262;-85
2023/04/14 13:49:27;;;;;;;2.63;1.40;;;;;;;;;;5032524;28;20210;-87
2023/04/14 13:51:54;;;;;;;3.75;1.80;;;;;;;;;;5032135;28;20238;-85
2023/04/14 13:54:21;;;;;;;2.28;1.33;;;;;;;;;;5020029;28;20207;-85
2023/04/14 13:56:48;;;;;;;2.58;1.60;;;;;;;;;;5026325;28;20238;-85
2023/04/14 13:59:16;;;;;;;3.72;1.48;;;;;;;;;;5027400;28;20204;-86
2023/04/14 14:01:44;;;;;;;3.25;1.50;;;;;;;;;;5028676;28;20728;-84
2023/04/14 14:04:11;;;;;;;2.65;1.50;;;;;;;;;;5031553;28;20230;-86
2023/04/14 14:06:38;;;;;;;4.32;1.60;;;;;;;;;;5029719;28;20625;-83
2023/04/14 14:09:06;;;;;;;3.15;1.48;;;;;;;;;;5032581;28;20221;-85
2023/04/14 14:11:33;;;;;;;3.47;1.40;;;;;;;;;;5031384;28;20237;-84
2023/04/14 14:14:00;;;;;;;3.15;1.10;;;;;;;;;;5032986;28;20252;-85
2023/04/14 14:16:27;;;;;;;2.72;1.20;;;;;;;;;;5032505;28;20267;-85
2023/04/14 14:18:56;;;;;;;2.80;1.50;;;;;;;;;;5032869;28;20203;-85
2023/04/14 14:21:23;;;;;;;4.53;1.52;;;;;;;;;;5032677;28;20231;-84
2023/04/14 14:23:50;;;;;;;3.25;1.58;;;;;;;;;;5032875;28;20215;-84
2023/04/14 14:26:18;;;;;;;4.75;1.60;;;;;;;;;;5032524;28;20242;-84
2023/04/14 14:28:46;;;;;;;2.20;1.60;;;;;;;;;;5032807;28;20190;-84
2023/04/14 14:31:15;;;;;;;3.05;1.33;;;;;;;;;;5032359;28;20230;-84
2023/04/14 14:33:42;;;;;;;2.92;1.25;;;;;;;;;;5032937;28;20227;-83
2023/04/14 14:36:10;;;;;;;2.70;1.40;;;;;;;;;;5032133;28;20231;-84
2023/04/14 14:38:37;;;;;;;3.25;1.38;;;;;;;;;;5032524;28;20699;-84
2023/04/14 14:41:04;;;;;;;1.35;0.98;;;;;;;;;;5032267;28;20238;-83
2023/04/14 14:43:32;;;;;;;3.28;1.42;;;;;;;;;;5022239;28;20226;-84
2023/04/14 14:46:00;;;;;;;3.20;1.38;;;;;;;;;;5012306;28;20231;-83
2023/04/14 14:48:27;;;;;;;4.13;1.52;;;;;;;;;;5012762;28;20724;-83